Terminal Aerodrome Forecast
Issued by NWS Mt. Holly, NJ

Home | Current Version | Previous Version | Text Only | Print | Product List | Glossary On
Versions: 1 2 3 4 5 6 7 8 9 10 11 12 13 14 15 16
000
FTUS41 KPHI 011100
TAFABE
TAF
KABE 011137Z 0112/0212 VRB04KT P6SM SCT007 BKN150
      TEMPO 0112/0114 5SM BR BKN007 BKN150
     FM011500 20006KT P6SM FEW050 BKN100
     FM020100 VRB03KT P6SM OVC060
     FM020900 VRB02KT 5SM -SHRA BR OVC060=

USA.gov is the U.S. government's official web portal to all federal, state and local government web resources and services.